sensor_id;sensor_type;location;lat;lon;timestamp;temperature;humidity
34837;DHT22;21053;50.848;4.652;2022-09-09T00:02:20;14.90;99.90
34837;DHT22;21053;50.848;4.652;2022-09-09T00:04:58;14.90;99.90
34837;DHT22;21053;50.848;4.652;2022-09-09T00:07:47;15.00;99.90
34837;DHT22;21053;50.848;4.652;2022-09-09T00:16:20;14.90;99.90
34837;DHT22;21053;50.848;4.652;2022-09-09T00:19:20;15.00;99.90
34837;DHT22;21053;50.848;4.652;2022-09-09T00:22:16;15.10;99.90
34837;DHT22;21053;50.848;4.652;2022-09-09T00:24:53;15.10;99.90
34837;DHT22;21053;50.848;4.652;2022-09-09T00:27:25;15.00;99.90
34837;DHT22;21053;50.848;4.652;2022-09-09T00:30:17;14.80;99.90
34837;DHT22;21053;50.848;4.652;2022-09-09T00:32:51;14.80;99.90
34837;DHT22;21053;50.848;4.652;2022-09-09T00:35:36;14.90;99.90
34837;DHT22;21053;50.848;4.652;2022-09-09T00:38:33;14.90;99.90
34837;DHT22;21053;50.848;4.652;2022-09-09T00:41:23;15.00;99.90
34837;DHT22;21053;50.848;4.652;2022-09-09T00:44:49;14.90;99.90
34837;DHT22;21053;50.848;4.652;2022-09-09T00:52:40;15.00;99.90
34837;DHT22;21053;50.848;4.652;2022-09-09T00:58:07;14.80;99.90
34837;DHT22;21053;50.848;4.652;2022-09-09T01:00:57;14.90;99.90
34837;DHT22;21053;50.848;4.652;2022-09-09T01:06:27;14.80;99.90
34837;DHT22;21053;50.848;4.652;2022-09-09T01:14:42;14.90;99.90
34837;DHT22;21053;50.848;4.652;2022-09-09T01:17:24;14.80;99.90
34837;DHT22;21053;50.848;4.652;2022-09-09T01:20:15;14.80;99.90
34837;DHT22;21053;50.848;4.652;2022-09-09T01:28:48;14.90;99.90
34837;DHT22;21053;50.848;4.652;2022-09-09T01:31:19;14.80;99.90
34837;DHT22;21053;50.848;4.652;2022-09-09T01:33:48;14.90;99.90
34837;DHT22;21053;50.848;4.652;2022-09-09T01:36:38;14.90;99.90
34837;DHT22;21053;50.848;4.652;2022-09-09T01:39:04;14.90;99.90
34837;DHT22;21053;50.848;4.652;2022-09-09T01:41:33;15.00;99.90
34837;DHT22;21053;50.848;4.652;2022-09-09T01:44:00;15.00;99.90
34837;DHT22;21053;50.848;4.652;2022-09-09T01:46:29;15.00;99.90
34837;DHT22;21053;50.848;4.652;2022-09-09T01:48:55;14.90;99.90
34837;DHT22;21053;50.848;4.652;2022-09-09T01:51:21;14.90;99.90
34837;DHT22;21053;50.848;4.652;2022-09-09T01:53:51;15.00;99.90
34837;DHT22;21053;50.848;4.652;2022-09-09T01:56:43;15.00;99.90
34837;DHT22;21053;50.848;4.652;2022-09-09T01:59:22;15.00;99.90
34837;DHT22;21053;50.848;4.652;2022-09-09T02:02:19;15.10;99.90
34837;DHT22;21053;50.848;4.652;2022-09-09T02:04:54;15.10;99.90
34837;DHT22;21053;50.848;4.652;2022-09-09T02:07:49;15.10;99.90
34837;DHT22;21053;50.848;4.652;2022-09-09T02:10:30;15.00;99.90
34837;DHT22;21053;50.848;4.652;2022-09-09T02:13:17;15.00;99.90
34837;DHT22;21053;50.848;4.652;2022-09-09T02:18:56;15.00;99.90
34837;DHT22;21053;50.848;4.652;2022-09-09T02:21:28;14.90;99.90
34837;DHT22;21053;50.848;4.652;2022-09-09T02:23:58;15.00;99.90
34837;DHT22;21053;50.848;4.652;2022-09-09T02:26:27;15.00;99.90
34837;DHT22;21053;50.848;4.652;2022-09-09T02:28:58;14.90;99.90
34837;DHT22;21053;50.848;4.652;2022-09-09T02:31:27;14.90;99.90
34837;DHT22;21053;50.848;4.652;2022-09-09T02:33:57;14.90;99.90
34837;DHT22;21053;50.848;4.652;2022-09-09T02:36:27;14.80;99.90
34837;DHT22;21053;50.848;4.652;2022-09-09T02:39:05;14.80;99.90
34837;DHT22;21053;50.848;4.652;2022-09-09T02:41:38;14.90;99.90
34837;DHT22;21053;50.848;4.652;2022-09-09T02:44:16;14.80;99.90
34837;DHT22;21053;50.848;4.652;2022-09-09T02:47:09;14.90;99.90
34837;DHT22;21053;50.848;4.652;2022-09-09T02:49:54;14.80;99.90
34837;DHT22;21053;50.848;4.652;2022-09-09T02:55:14;14.80;99.90
34837;DHT22;21053;50.848;4.652;2022-09-09T02:57:42;14.80;99.90
34837;DHT22;21053;50.848;4.652;2022-09-09T03:00:26;14.80;99.90
34837;DHT22;21053;50.848;4.652;2022-09-09T03:02:54;14.70;99.90
34837;DHT22;21053;50.848;4.652;2022-09-09T03:05:22;14.70;99.90
34837;DHT22;21053;50.848;4.652;2022-09-09T03:07:50;14.70;99.90
34837;DHT22;21053;50.848;4.652;2022-09-09T03:10:17;14.80;99.90
34837;DHT22;21053;50.848;4.652;2022-09-09T03:12:45;14.80;99.90
34837;DHT22;21053;50.848;4.652;2022-09-09T03:15:13;14.80;99.90
34837;DHT22;21053;50.848;4.652;2022-09-09T03:17:43;14.80;99.90
34837;DHT22;21053;50.848;4.652;2022-09-09T03:20:10;14.90;99.90
34837;DHT22;21053;50.848;4.652;2022-09-09T03:22:40;14.80;99.90
34837;DHT22;21053;50.848;4.652;2022-09-09T03:25:12;14.90;99.90
34837;DHT22;21053;50.848;4.652;2022-09-09T03:27:41;15.00;99.90
34837;DHT22;21053;50.848;4.652;2022-09-09T03:30:07;14.90;99.90
34837;DHT22;21053;50.848;4.652;2022-09-09T03:32:35;15.00;99.90
34837;DHT22;21053;50.848;4.652;2022-09-09T03:35:14;15.00;99.90
34837;DHT22;21053;50.848;4.652;2022-09-09T03:37:43;15.10;99.90
34837;DHT22;21053;50.848;4.652;2022-09-09T03:40:17;15.10;99.90
34837;DHT22;21053;50.848;4.652;2022-09-09T03:42:45;15.00;99.90
34837;DHT22;21053;50.848;4.652;2022-09-09T03:45:14;15.10;99.90
34837;DHT22;21053;50.848;4.652;2022-09-09T03:47:43;15.10;99.90
34837;DHT22;21053;50.848;4.652;2022-09-09T03:50:11;15.20;99.90
34837;DHT22;21053;50.848;4.652;2022-09-09T03:52:41;15.20;99.90
34837;DHT22;21053;50.848;4.652;2022-09-09T03:55:09;15.20;99.90
34837;DHT22;21053;50.848;4.652;2022-09-09T03:57:38;15.20;99.90
34837;DHT22;21053;50.848;4.652;2022-09-09T04:00:07;15.10;99.90
34837;DHT22;21053;50.848;4.652;2022-09-09T04:02:35;15.10;99.90
34837;DHT22;21053;50.848;4.652;2022-09-09T04:05:04;15.10;99.90
34837;DHT22;21053;50.848;4.652;2022-09-09T04:07:31;15.00;99.90
34837;DHT22;21053;50.848;4.652;2022-09-09T04:09:58;15.10;99.90
34837;DHT22;21053;50.848;4.652;2022-09-09T04:12:26;15.00;99.90
34837;DHT22;21053;50.848;4.652;2022-09-09T04:14:55;15.20;99.90
34837;DHT22;21053;50.848;4.652;2022-09-09T04:17:28;15.20;99.90
34837;DHT22;21053;50.848;4.652;2022-09-09T04:19:53;15.10;99.90
34837;DHT22;21053;50.848;4.652;2022-09-09T04:22:22;15.10;99.90
34837;DHT22;21053;50.848;4.652;2022-09-09T04:24:51;15.30;99.90
34837;DHT22;21053;50.848;4.652;2022-09-09T04:27:20;15.40;99.90
34837;DHT22;21053;50.848;4.652;2022-09-09T04:29:45;15.40;99.90
34837;DHT22;21053;50.848;4.652;2022-09-09T04:32:14;15.40;99.90
34837;DHT22;21053;50.848;4.652;2022-09-09T04:34:43;15.50;99.90
34837;DHT22;21053;50.848;4.652;2022-09-09T04:37:10;15.60;99.90
34837;DHT22;21053;50.848;4.652;2022-09-09T04:39:35;15.70;99.90
34837;DHT22;21053;50.848;4.652;2022-09-09T04:42:02;15.60;99.90
34837;DHT22;21053;50.848;4.652;2022-09-09T04:44:51;15.70;99.90
34837;DHT22;21053;50.848;4.652;2022-09-09T04:49:59;15.90;99.90
34837;DHT22;21053;50.848;4.652;2022-09-09T04:52:29;16.00;99.90
34837;DHT22;21053;50.848;4.652;2022-09-09T04:54:57;15.90;99.90
34837;DHT22;21053;50.848;4.652;2022-09-09T04:57:25;15.80;99.90
34837;DHT22;21053;50.848;4.652;2022-09-09T04:59:58;15.70;99.90
34837;DHT22;21053;50.848;4.652;2022-09-09T05:02:26;15.80;99.90
34837;DHT22;21053;50.848;4.652;2022-09-09T05:04:55;15.80;99.90
34837;DHT22;21053;50.848;4.652;2022-09-09T05:07:27;15.90;99.90
34837;DHT22;21053;50.848;4.652;2022-09-09T05:09:57;15.80;99.90
34837;DHT22;21053;50.848;4.652;2022-09-09T05:12:26;15.80;99.90
34837;DHT22;21053;50.848;4.652;2022-09-09T05:14:53;15.90;99.90
34837;DHT22;21053;50.848;4.652;2022-09-09T05:17:21;15.70;99.90
34837;DHT22;21053;50.848;4.652;2022-09-09T05:19:50;15.70;99.90
34837;DHT22;21053;50.848;4.652;2022-09-09T05:22:21;15.70;99.90
34837;DHT22;21053;50.848;4.652;2022-09-09T05:24:49;15.60;99.90
34837;DHT22;21053;50.848;4.652;2022-09-09T05:27:18;15.70;99.90
34837;DHT22;21053;50.848;4.652;2022-09-09T05:29:45;15.80;99.90
34837;DHT22;21053;50.848;4.652;2022-09-09T05:32:14;15.90;99.90
34837;DHT22;21053;50.848;4.652;2022-09-09T05:34:45;16.00;99.90
34837;DHT22;21053;50.848;4.652;2022-09-09T05:37:12;15.90;99.90
34837;DHT22;21053;50.848;4.652;2022-09-09T05:39:37;15.90;99.90
34837;DHT22;21053;50.848;4.652;2022-09-09T05:42:03;16.00;99.90
34837;DHT22;21053;50.848;4.652;2022-09-09T05:44:30;16.10;99.90
34837;DHT22;21053;50.848;4.652;2022-09-09T05:46:58;16.10;99.90
34837;DHT22;21053;50.848;4.652;2022-09-09T05:49:27;16.20;99.90
34837;DHT22;21053;50.848;4.652;2022-09-09T05:51:56;16.20;99.90
34837;DHT22;21053;50.848;4.652;2022-09-09T05:54:22;16.30;99.90
34837;DHT22;21053;50.848;4.652;2022-09-09T05:56:48;16.50;99.90
34837;DHT22;21053;50.848;4.652;2022-09-09T05:59:19;16.60;99.90
34837;DHT22;21053;50.848;4.652;2022-09-09T06:01:46;16.60;99.90
34837;DHT22;21053;50.848;4.652;2022-09-09T06:04:12;16.70;99.90
34837;DHT22;21053;50.848;4.652;2022-09-09T06:06:39;16.70;99.90
34837;DHT22;21053;50.848;4.652;2022-09-09T06:09:07;16.70;99.90
34837;DHT22;21053;50.848;4.652;2022-09-09T06:11:38;16.70;99.90
34837;DHT22;21053;50.848;4.652;2022-09-09T06:14:07;16.70;99.90
34837;DHT22;21053;50.848;4.652;2022-09-09T06:16:36;16.70;99.90
34837;DHT22;21053;50.848;4.652;2022-09-09T06:19:06;16.80;99.90
34837;DHT22;21053;50.848;4.652;2022-09-09T06:21:36;16.80;99.90
34837;DHT22;21053;50.848;4.652;2022-09-09T06:24:07;16.70;99.90
34837;DHT22;21053;50.848;4.652;2022-09-09T06:26:37;16.80;99.90
34837;DHT22;21053;50.848;4.652;2022-09-09T06:29:05;16.80;99.90
34837;DHT22;21053;50.848;4.652;2022-09-09T06:31:33;16.70;99.90
34837;DHT22;21053;50.848;4.652;2022-09-09T06:34:05;16.70;99.90
34837;DHT22;21053;50.848;4.652;2022-09-09T06:36:36;16.70;99.90
34837;DHT22;21053;50.848;4.652;2022-09-09T06:39:05;16.90;99.90
34837;DHT22;21053;50.848;4.652;2022-09-09T06:41:33;16.90;99.90
34837;DHT22;21053;50.848;4.652;2022-09-09T06:44:00;17.00;99.90
34837;DHT22;21053;50.848;4.652;2022-09-09T06:46:30;17.10;99.90
34837;DHT22;21053;50.848;4.652;2022-09-09T06:49:00;17.30;99.90
34837;DHT22;21053;50.848;4.652;2022-09-09T06:51:30;17.40;99.90
34837;DHT22;21053;50.848;4.652;2022-09-09T06:54:00;17.50;99.90
34837;DHT22;21053;50.848;4.652;2022-09-09T06:56:36;17.30;99.90
34837;DHT22;21053;50.848;4.652;2022-09-09T06:59:04;17.20;99.90
34837;DHT22;21053;50.848;4.652;2022-09-09T07:01:40;17.20;99.90
34837;DHT22;21053;50.848;4.652;2022-09-09T07:04:08;17.20;99.90
34837;DHT22;21053;50.848;4.652;2022-09-09T07:06:40;17.30;99.90
34837;DHT22;21053;50.848;4.652;2022-09-09T07:09:11;17.40;99.90
34837;DHT22;21053;50.848;4.652;2022-09-09T07:11:55;17.30;99.90
34837;DHT22;21053;50.848;4.652;2022-09-09T07:14:26;17.30;99.90
34837;DHT22;21053;50.848;4.652;2022-09-09T07:16:54;17.20;99.90
34837;DHT22;21053;50.848;4.652;2022-09-09T07:19:21;17.30;99.90
34837;DHT22;21053;50.848;4.652;2022-09-09T07:21:50;17.20;99.90
34837;DHT22;21053;50.848;4.652;2022-09-09T07:24:15;17.20;99.90
34837;DHT22;21053;50.848;4.652;2022-09-09T07:26:41;17.30;99.90
34837;DHT22;21053;50.848;4.652;2022-09-09T07:29:09;17.30;99.90
34837;DHT22;21053;50.848;4.652;2022-09-09T07:31:37;17.30;99.90
34837;DHT22;21053;50.848;4.652;2022-09-09T07:34:09;17.20;99.90
34837;DHT22;21053;50.848;4.652;2022-09-09T07:36:37;17.30;99.90
34837;DHT22;21053;50.848;4.652;2022-09-09T07:39:08;17.30;99.90
34837;DHT22;21053;50.848;4.652;2022-09-09T07:41:42;17.30;99.90
34837;DHT22;21053;50.848;4.652;2022-09-09T07:44:14;17.30;99.90
34837;DHT22;21053;50.848;4.652;2022-09-09T07:46:44;17.40;99.90
34837;DHT22;21053;50.848;4.652;2022-09-09T07:49:14;17.30;99.90
34837;DHT22;21053;50.848;4.652;2022-09-09T07:51:42;17.30;99.90
34837;DHT22;21053;50.848;4.652;2022-09-09T07:54:14;17.40;99.90
34837;DHT22;21053;50.848;4.652;2022-09-09T07:56:43;17.50;99.90
34837;DHT22;21053;50.848;4.652;2022-09-09T07:59:10;17.60;99.90
34837;DHT22;21053;50.848;4.652;2022-09-09T08:01:43;17.80;99.90
34837;DHT22;21053;50.848;4.652;2022-09-09T08:04:18;17.90;99.90
34837;DHT22;21053;50.848;4.652;2022-09-09T08:06:58;17.90;99.90
34837;DHT22;21053;50.848;4.652;2022-09-09T08:09:25;17.80;99.90
34837;DHT22;21053;50.848;4.652;2022-09-09T08:11:57;17.90;99.90
34837;DHT22;21053;50.848;4.652;2022-09-09T08:14:26;17.90;99.90
34837;DHT22;21053;50.848;4.652;2022-09-09T08:16:55;18.00;99.90
34837;DHT22;21053;50.848;4.652;2022-09-09T08:19:22;18.10;99.90
34837;DHT22;21053;50.848;4.652;2022-09-09T08:21:52;18.20;99.90
34837;DHT22;21053;50.848;4.652;2022-09-09T08:24:20;18.30;99.90
34837;DHT22;21053;50.848;4.652;2022-09-09T08:26:48;18.30;99.90
34837;DHT22;21053;50.848;4.652;2022-09-09T08:29:19;18.50;99.90
34837;DHT22;21053;50.848;4.652;2022-09-09T08:31:57;18.60;99.90
34837;DHT22;21053;50.848;4.652;2022-09-09T08:34:24;18.60;99.90
34837;DHT22;21053;50.848;4.652;2022-09-09T08:36:54;18.60;99.90
34837;DHT22;21053;50.848;4.652;2022-09-09T08:39:22;18.60;99.90
34837;DHT22;21053;50.848;4.652;2022-09-09T08:47:25;18.50;99.90
34837;DHT22;21053;50.848;4.652;2022-09-09T08:50:16;18.40;99.90
34837;DHT22;21053;50.848;4.652;2022-09-09T08:53:03;18.40;99.90
34837;DHT22;21053;50.848;4.652;2022-09-09T08:55:53;18.30;99.90
34837;DHT22;21053;50.848;4.652;2022-09-09T08:58:27;18.20;99.90
34837;DHT22;21053;50.848;4.652;2022-09-09T09:12:22;17.80;99.90
34837;DHT22;21053;50.848;4.652;2022-09-09T09:14:50;17.80;99.90
34837;DHT22;21053;50.848;4.652;2022-09-09T09:17:23;17.80;99.90
34837;DHT22;21053;50.848;4.652;2022-09-09T09:19:50;17.80;99.90
34837;DHT22;21053;50.848;4.652;2022-09-09T09:25:34;17.80;99.90
34837;DHT22;21053;50.848;4.652;2022-09-09T09:30:39;17.70;99.90
34837;DHT22;21053;50.848;4.652;2022-09-09T09:33:25;17.80;99.90
34837;DHT22;21053;50.848;4.652;2022-09-09T09:35:52;17.70;99.90
34837;DHT22;21053;50.848;4.652;2022-09-09T09:38:24;17.80;99.90
34837;DHT22;21053;50.848;4.652;2022-09-09T09:40:54;17.70;99.90
34837;DHT22;21053;50.848;4.652;2022-09-09T09:45:55;17.90;99.90
34837;DHT22;21053;50.848;4.652;2022-09-09T09:48:26;17.80;99.90
34837;DHT22;21053;50.848;4.652;2022-09-09T09:51:00;17.80;99.90
34837;DHT22;21053;50.848;4.652;2022-09-09T09:53:34;17.80;99.90
34837;DHT22;21053;50.848;4.652;2022-09-09T09:56:03;18.00;99.90
34837;DHT22;21053;50.848;4.652;2022-09-09T10:01:32;17.90;99.90
34837;DHT22;21053;50.848;4.652;2022-09-09T10:04:15;17.90;99.90
34837;DHT22;21053;50.848;4.652;2022-09-09T10:06:43;17.90;99.90
34837;DHT22;21053;50.848;4.652;2022-09-09T10:09:24;17.90;99.90
34837;DHT22;21053;50.848;4.652;2022-09-09T10:20:46;18.10;99.90
34837;DHT22;21053;50.848;4.652;2022-09-09T10:35:09;17.90;99.90
34837;DHT22;21053;50.848;4.652;2022-09-09T10:38:08;18.00;99.90
34837;DHT22;21053;50.848;4.652;2022-09-09T10:43:28;17.90;99.90
34837;DHT22;21053;50.848;4.652;2022-09-09T10:51:40;17.90;99.90
34837;DHT22;21053;50.848;4.652;2022-09-09T10:56:53;18.10;99.90
34837;DHT22;21053;50.848;4.652;2022-09-09T10:59:30;18.20;99.90
34837;DHT22;21053;50.848;4.652;2022-09-09T11:04:48;18.20;99.90
34837;DHT22;21053;50.848;4.652;2022-09-09T11:07:28;18.40;99.90
34837;DHT22;21053;50.848;4.652;2022-09-09T11:10:05;18.50;99.90
34837;DHT22;21053;50.848;4.652;2022-09-09T11:12:34;18.50;99.90
34837;DHT22;21053;50.848;4.652;2022-09-09T11:15:08;18.60;99.90
34837;DHT22;21053;50.848;4.652;2022-09-09T11:17:44;18.60;99.90
34837;DHT22;21053;50.848;4.652;2022-09-09T11:20:14;18.50;99.90
34837;DHT22;21053;50.848;4.652;2022-09-09T11:23:04;18.50;99.90
34837;DHT22;21053;50.848;4.652;2022-09-09T11:25:57;18.60;99.90
34837;DHT22;21053;50.848;4.652;2022-09-09T11:29:00;18.80;99.90
34837;DHT22;21053;50.848;4.652;2022-09-09T11:31:59;19.00;99.90
34837;DHT22;21053;50.848;4.652;2022-09-09T11:40:32;19.40;99.90
34837;DHT22;21053;50.848;4.652;2022-09-09T11:43:25;19.50;99.90
34837;DHT22;21053;50.848;4.652;2022-09-09T11:45:58;19.40;99.90
34837;DHT22;21053;50.848;4.652;2022-09-09T11:48:39;19.30;99.90
34837;DHT22;21053;50.848;4.652;2022-09-09T11:56:55;19.70;99.90
34837;DHT22;21053;50.848;4.652;2022-09-09T11:59:29;19.70;99.90
34837;DHT22;21053;50.848;4.652;2022-09-09T12:02:00;19.70;99.90
34837;DHT22;21053;50.848;4.652;2022-09-09T12:05:08;19.80;99.90
34837;DHT22;21053;50.848;4.652;2022-09-09T12:07:56;19.80;99.90
34837;DHT22;21053;50.848;4.652;2022-09-09T12:10:38;19.90;99.90
34837;DHT22;21053;50.848;4.652;2022-09-09T12:13:22;19.90;99.90
34837;DHT22;21053;50.848;4.652;2022-09-09T12:15:53;19.80;99.90
34837;DHT22;21053;50.848;4.652;2022-09-09T12:18:44;19.80;99.90
34837;DHT22;21053;50.848;4.652;2022-09-09T12:24:10;19.80;99.90
34837;DHT22;21053;50.848;4.652;2022-09-09T12:27:18;19.90;99.90
34837;DHT22;21053;50.848;4.652;2022-09-09T12:30:02;20.00;99.90
34837;DHT22;21053;50.848;4.652;2022-09-09T12:32:29;20.30;99.90
34837;DHT22;21053;50.848;4.652;2022-09-09T12:35:20;20.50;99.90
34837;DHT22;21053;50.848;4.652;2022-09-09T12:38:01;20.60;99.90
34837;DHT22;21053;50.848;4.652;2022-09-09T12:40:32;20.70;99.90
34837;DHT22;21053;50.848;4.652;2022-09-09T12:43:14;20.80;99.90
34837;DHT22;21053;50.848;4.652;2022-09-09T12:45:44;20.70;99.90
34837;DHT22;21053;50.848;4.652;2022-09-09T12:48:18;20.60;99.90
34837;DHT22;21053;50.848;4.652;2022-09-09T12:50:50;20.40;99.90
34837;DHT22;21053;50.848;4.652;2022-09-09T12:53:24;20.50;99.90
34837;DHT22;21053;50.848;4.652;2022-09-09T12:56:07;20.50;99.90
34837;DHT22;21053;50.848;4.652;2022-09-09T12:58:36;20.50;99.90
34837;DHT22;21053;50.848;4.652;2022-09-09T13:03:54;20.90;99.90
34837;DHT22;21053;50.848;4.652;2022-09-09T13:06:28;21.40;99.90
34837;DHT22;21053;50.848;4.652;2022-09-09T13:09:01;21.40;99.90
34837;DHT22;21053;50.848;4.652;2022-09-09T13:11:38;21.30;99.90
34837;DHT22;21053;50.848;4.652;2022-09-09T13:14:05;21.30;99.90
34837;DHT22;21053;50.848;4.652;2022-09-09T13:16:35;21.30;99.90
34837;DHT22;21053;50.848;4.652;2022-09-09T13:19:08;21.20;99.90
34837;DHT22;21053;50.848;4.652;2022-09-09T13:21:39;21.30;99.90
34837;DHT22;21053;50.848;4.652;2022-09-09T13:24:36;21.30;99.90
34837;DHT22;21053;50.848;4.652;2022-09-09T13:27:51;21.50;99.90
34837;DHT22;21053;50.848;4.652;2022-09-09T13:29:54;21.70;99.90
34837;DHT22;21053;50.848;4.652;2022-09-09T13:32:26;21.70;99.90
34837;DHT22;21053;50.848;4.652;2022-09-09T13:35:00;21.70;99.90
34837;DHT22;21053;50.848;4.652;2022-09-09T13:37:39;21.60;99.90
34837;DHT22;21053;50.848;4.652;2022-09-09T13:40:18;21.50;99.90
34837;DHT22;21053;50.848;4.652;2022-09-09T13:42:46;21.10;99.90
34837;DHT22;21053;50.848;4.652;2022-09-09T13:45:21;21.40;99.90
34837;DHT22;21053;50.848;4.652;2022-09-09T13:47:49;21.30;99.90
34837;DHT22;21053;50.848;4.652;2022-09-09T13:50:30;21.40;99.90
34837;DHT22;21053;50.848;4.652;2022-09-09T13:52:58;21.50;99.90
34837;DHT22;21053;50.848;4.652;2022-09-09T13:55:27;21.60;99.90
34837;DHT22;21053;50.848;4.652;2022-09-09T13:57:58;21.50;99.90
34837;DHT22;21053;50.848;4.652;2022-09-09T14:00:33;21.50;99.90
34837;DHT22;21053;50.848;4.652;2022-09-09T14:03:01;21.50;99.90
34837;DHT22;21053;50.848;4.652;2022-09-09T14:05:32;21.30;99.90
34837;DHT22;21053;50.848;4.652;2022-09-09T14:08:04;21.20;99.90
34837;DHT22;21053;50.848;4.652;2022-09-09T14:10:34;21.20;99.90
34837;DHT22;21053;50.848;4.652;2022-09-09T14:13:06;21.20;99.90
34837;DHT22;21053;50.848;4.652;2022-09-09T14:15:39;21.10;99.90
34837;DHT22;21053;50.848;4.652;2022-09-09T14:18:05;21.00;99.90
34837;DHT22;21053;50.848;4.652;2022-09-09T14:20:37;21.00;99.90
34837;DHT22;21053;50.848;4.652;2022-09-09T14:23:03;21.00;99.90
34837;DHT22;21053;50.848;4.652;2022-09-09T14:25:31;20.90;99.90
34837;DHT22;21053;50.848;4.652;2022-09-09T14:28:00;20.90;99.90
34837;DHT22;21053;50.848;4.652;2022-09-09T14:30:30;20.80;99.90
34837;DHT22;21053;50.848;4.652;2022-09-09T14:32:56;20.90;99.90
34837;DHT22;21053;50.848;4.652;2022-09-09T14:35:24;21.00;99.90
34837;DHT22;21053;50.848;4.652;2022-09-09T14:37:51;21.20;99.90
34837;DHT22;21053;50.848;4.652;2022-09-09T14:42:49;21.30;99.90
34837;DHT22;21053;50.848;4.652;2022-09-09T14:45:22;21.30;99.90
34837;DHT22;21053;50.848;4.652;2022-09-09T14:47:53;21.20;99.90
34837;DHT22;21053;50.848;4.652;2022-09-09T14:50:22;21.10;99.90
34837;DHT22;21053;50.848;4.652;2022-09-09T14:52:49;21.20;99.90
34837;DHT22;21053;50.848;4.652;2022-09-09T14:55:18;21.10;99.90
34837;DHT22;21053;50.848;4.652;2022-09-09T14:57:45;21.10;99.90
34837;DHT22;21053;50.848;4.652;2022-09-09T15:00:14;21.00;99.90
34837;DHT22;21053;50.848;4.652;2022-09-09T15:02:41;21.00;99.90
34837;DHT22;21053;50.848;4.652;2022-09-09T15:05:13;21.10;99.90
34837;DHT22;21053;50.848;4.652;2022-09-09T15:07:41;21.20;99.90
34837;DHT22;21053;50.848;4.652;2022-09-09T15:10:08;21.30;99.90
34837;DHT22;21053;50.848;4.652;2022-09-09T15:12:35;21.50;99.90
34837;DHT22;21053;50.848;4.652;2022-09-09T15:15:01;21.70;99.90
34837;DHT22;21053;50.848;4.652;2022-09-09T15:17:30;21.70;99.90
34837;DHT22;21053;50.848;4.652;2022-09-09T15:19:56;21.70;99.10
34837;DHT22;21053;50.848;4.652;2022-09-09T15:22:24;21.80;99.10
34837;DHT22;21053;50.848;4.652;2022-09-09T15:24:51;21.70;98.70
34837;DHT22;21053;50.848;4.652;2022-09-09T15:27:18;21.50;99.10
34837;DHT22;21053;50.848;4.652;2022-09-09T15:29:47;21.40;99.20
34837;DHT22;21053;50.848;4.652;2022-09-09T15:32:15;21.30;99.80
34837;DHT22;21053;50.848;4.652;2022-09-09T15:34:43;21.10;99.20
34837;DHT22;21053;50.848;4.652;2022-09-09T15:37:13;21.20;99.40
34837;DHT22;21053;50.848;4.652;2022-09-09T15:39:39;21.20;99.90
34837;DHT22;21053;50.848;4.652;2022-09-09T15:42:09;21.30;99.90
34837;DHT22;21053;50.848;4.652;2022-09-09T15:44:44;21.20;99.90
34837;DHT22;21053;50.848;4.652;2022-09-09T15:47:11;21.30;99.90
34837;DHT22;21053;50.848;4.652;2022-09-09T15:49:38;21.30;99.60
34837;DHT22;21053;50.848;4.652;2022-09-09T15:52:06;21.30;99.90
34837;DHT22;21053;50.848;4.652;2022-09-09T15:54:35;21.30;99.30
34837;DHT22;21053;50.848;4.652;2022-09-09T15:57:07;21.30;99.60
34837;DHT22;21053;50.848;4.652;2022-09-09T16:00:07;21.40;99.60
34837;DHT22;21053;50.848;4.652;2022-09-09T16:02:37;21.40;99.20
34837;DHT22;21053;50.848;4.652;2022-09-09T16:05:03;21.30;99.50
34837;DHT22;21053;50.848;4.652;2022-09-09T16:07:29;21.10;99.20
34837;DHT22;21053;50.848;4.652;2022-09-09T16:09:55;20.90;99.90
34837;DHT22;21053;50.848;4.652;2022-09-09T16:12:24;20.90;99.90
34837;DHT22;21053;50.848;4.652;2022-09-09T16:14:52;21.00;99.90
34837;DHT22;21053;50.848;4.652;2022-09-09T16:17:21;21.00;99.90
34837;DHT22;21053;50.848;4.652;2022-09-09T16:19:46;21.10;99.50
34837;DHT22;21053;50.848;4.652;2022-09-09T16:22:15;21.00;99.90
34837;DHT22;21053;50.848;4.652;2022-09-09T16:24:43;21.00;99.90
34837;DHT22;21053;50.848;4.652;2022-09-09T16:27:12;20.90;99.90
34837;DHT22;21053;50.848;4.652;2022-09-09T16:29:38;20.80;99.90
34837;DHT22;21053;50.848;4.652;2022-09-09T16:32:07;20.80;99.90
34837;DHT22;21053;50.848;4.652;2022-09-09T16:34:36;20.80;99.90
34837;DHT22;21053;50.848;4.652;2022-09-09T16:37:06;20.80;99.90
34837;DHT22;21053;50.848;4.652;2022-09-09T16:39:31;20.70;99.90
34837;DHT22;21053;50.848;4.652;2022-09-09T16:41:58;20.70;99.90
34837;DHT22;21053;50.848;4.652;2022-09-09T16:44:26;20.50;99.90
34837;DHT22;21053;50.848;4.652;2022-09-09T16:47:06;20.40;99.90
34837;DHT22;21053;50.848;4.652;2022-09-09T16:49:31;20.40;99.90
34837;DHT22;21053;50.848;4.652;2022-09-09T16:51:58;20.30;99.90
34837;DHT22;21053;50.848;4.652;2022-09-09T16:54:26;20.40;99.90
34837;DHT22;21053;50.848;4.652;2022-09-09T16:57:11;20.30;99.90
34837;DHT22;21053;50.848;4.652;2022-09-09T16:59:37;20.10;99.90
34837;DHT22;21053;50.848;4.652;2022-09-09T17:02:08;19.90;99.90
34837;DHT22;21053;50.848;4.652;2022-09-09T17:04:34;19.90;99.90
34837;DHT22;21053;50.848;4.652;2022-09-09T17:07:03;19.80;99.90
34837;DHT22;21053;50.848;4.652;2022-09-09T17:09:31;19.70;99.90
34837;DHT22;21053;50.848;4.652;2022-09-09T17:11:57;19.60;99.90
34837;DHT22;21053;50.848;4.652;2022-09-09T17:14:24;19.50;99.90
34837;DHT22;21053;50.848;4.652;2022-09-09T17:16:53;19.50;99.90
34837;DHT22;21053;50.848;4.652;2022-09-09T17:19:22;19.50;99.90
34837;DHT22;21053;50.848;4.652;2022-09-09T17:21:50;19.50;99.90
34837;DHT22;21053;50.848;4.652;2022-09-09T17:24:19;19.40;99.90
34837;DHT22;21053;50.848;4.652;2022-09-09T17:26:47;19.40;99.90
34837;DHT22;21053;50.848;4.652;2022-09-09T17:29:29;19.30;99.90
34837;DHT22;21053;50.848;4.652;2022-09-09T17:31:55;19.20;99.90
34837;DHT22;21053;50.848;4.652;2022-09-09T17:34:22;19.30;99.90
34837;DHT22;21053;50.848;4.652;2022-09-09T17:36:52;19.20;99.90
34837;DHT22;21053;50.848;4.652;2022-09-09T17:39:21;19.20;99.90
34837;DHT22;21053;50.848;4.652;2022-09-09T17:41:49;19.20;99.90
34837;DHT22;21053;50.848;4.652;2022-09-09T17:44:18;19.20;99.90
34837;DHT22;21053;50.848;4.652;2022-09-09T17:46:47;19.20;99.90
34837;DHT22;21053;50.848;4.652;2022-09-09T17:49:17;19.00;99.90
34837;DHT22;21053;50.848;4.652;2022-09-09T17:51:44;19.00;99.90
34837;DHT22;21053;50.848;4.652;2022-09-09T17:54:16;19.00;99.90
34837;DHT22;21053;50.848;4.652;2022-09-09T17:56:43;18.80;99.90
34837;DHT22;21053;50.848;4.652;2022-09-09T17:59:13;18.70;99.90
34837;DHT22;21053;50.848;4.652;2022-09-09T18:01:43;18.60;99.90
34837;DHT22;21053;50.848;4.652;2022-09-09T18:04:14;18.50;99.90